createdAt,value
2023-02-17T09:44:17.615Z,28.69
2023-02-17T09:46:59.515Z,28.34
2023-02-17T09:49:10.356Z,28.21
2023-02-17T09:51:36.709Z,28.56
2023-02-17T09:54:03.100Z,28.55
2023-02-17T09:56:29.462Z,28.85
2023-02-17T09:58:55.926Z,28.76
2023-02-17T10:01:22.282Z,28.71
2023-02-17T10:03:48.608Z,28.53
2023-02-17T10:06:14.951Z,28.34
2023-02-17T10:08:41.372Z,28.14
2023-02-17T10:11:07.715Z,28.28
2023-02-17T10:13:34.147Z,28.37
2023-02-17T10:16:00.457Z,28.50
2023-02-17T10:18:26.876Z,28.53
2023-02-17T10:20:53.227Z,28.60
2023-02-17T10:23:19.565Z,28.74
2023-02-17T10:25:45.976Z,28.73
2023-02-17T10:28:12.319Z,28.80
2023-02-17T10:30:38.785Z,28.74
2023-02-17T10:33:05.074Z,28.80
2023-02-17T10:35:31.463Z,28.78
2023-02-17T10:37:57.835Z,28.75
2023-02-17T10:40:24.185Z,28.71
2023-02-17T10:42:50.731Z,28.69
2023-02-17T10:45:16.969Z,28.09
2023-02-17T10:47:43.426Z,27.92
2023-02-17T10:50:09.801Z,27.66
2023-02-17T10:52:36.184Z,27.86
2023-02-17T10:55:06.593Z,27.78
2023-02-17T10:57:28.946Z,28.24
2023-02-17T10:59:55.276Z,27.94
2023-02-17T11:02:21.675Z,28.18
2023-02-17T11:04:48.025Z,28.35
2023-02-17T11:07:14.412Z,28.67
2023-02-17T11:09:40.759Z,28.83
2023-02-17T11:12:07.160Z,29.06
2023-02-17T11:14:33.505Z,29.33
2023-02-17T11:16:59.947Z,29.50
2023-02-17T11:19:28.727Z,29.66
2023-02-17T11:21:55.090Z,29.82
2023-02-17T11:24:21.418Z,29.94
2023-02-17T11:26:47.794Z,30.08
2023-02-17T11:29:14.142Z,30.14
2023-02-17T11:31:40.622Z,29.98
2023-02-17T11:34:06.889Z,29.75
2023-02-17T11:36:33.360Z,29.56
2023-02-17T11:38:59.719Z,29.51
2023-02-17T11:41:26.096Z,29.45
2023-02-17T11:43:52.438Z,29.49
2023-02-17T11:46:18.861Z,29.50
2023-02-17T11:48:45.161Z,29.53
2023-02-17T11:51:11.536Z,29.56
2023-02-17T11:53:37.902Z,29.75
2023-02-17T11:56:04.668Z,29.74
2023-02-17T11:58:30.636Z,29.98
2023-02-17T12:00:58.340Z,30.04
2023-02-17T12:03:23.398Z,30.03
2023-02-17T12:05:49.755Z,30.17
2023-02-17T12:08:16.101Z,30.05
2023-02-17T12:10:42.483Z,29.92
2023-02-17T12:13:08.825Z,29.44
2023-02-17T12:15:35.296Z,29.44
2023-02-17T12:18:01.565Z,29.22
2023-02-17T12:20:27.961Z,29.11
2023-02-17T12:22:54.304Z,29.25
2023-02-17T12:25:20.702Z,29.28
2023-02-17T12:27:47.062Z,29.41
2023-02-17T12:30:13.570Z,29.23
2023-02-17T12:32:39.856Z,29.11
2023-02-17T12:35:06.235Z,29.25
2023-02-17T12:37:32.590Z,29.28
2023-02-17T12:39:58.973Z,29.37
2023-02-17T12:42:25.316Z,29.46
2023-02-17T12:44:51.730Z,29.48
2023-02-17T12:47:18.078Z,29.52
2023-02-17T12:49:44.475Z,29.69
2023-02-17T12:52:10.820Z,29.79
2023-02-17T12:54:37.236Z,29.79
2023-02-17T12:57:03.590Z,29.86
2023-02-17T12:59:29.981Z,29.43
2023-02-17T13:01:56.319Z,29.34
2023-02-17T13:04:22.712Z,29.20
2023-02-17T13:06:49.069Z,28.93
2023-02-17T13:09:15.450Z,29.02
2023-02-17T13:11:41.852Z,29.11
2023-02-17T13:14:08.291Z,29.21
2023-02-17T13:16:34.648Z,29.35
2023-02-17T13:19:01.036Z,29.39
2023-02-17T13:21:27.732Z,29.47
2023-02-17T13:23:54.111Z,29.37
2023-02-17T13:26:20.470Z,29.08
2023-02-17T13:28:46.874Z,29.02
2023-02-17T13:31:13.330Z,29.11
2023-02-17T13:33:39.620Z,29.27
2023-02-17T13:36:06.266Z,29.38
2023-02-17T13:38:32.454Z,29.46
2023-02-17T13:40:58.749Z,29.57
2023-02-17T13:43:27.267Z,29.63
2023-02-17T13:45:53.668Z,29.66
2023-02-17T13:48:20.057Z,29.50
2023-02-17T13:50:46.415Z,29.19
2023-02-17T13:53:12.853Z,29.15
2023-02-17T13:55:39.184Z,28.88
2023-02-17T13:58:05.590Z,28.80
2023-02-17T14:00:31.946Z,28.76
2023-02-17T14:02:58.349Z,28.82
2023-02-17T14:05:24.719Z,28.95
2023-02-17T14:07:51.112Z,29.13
2023-02-17T14:10:17.469Z,29.23
2023-02-17T14:12:43.903Z,29.35
2023-02-17T14:15:10.258Z,29.42
2023-02-17T14:17:36.665Z,29.42
2023-02-17T14:20:03.043Z,29.22
2023-02-17T14:22:29.423Z,29.00
2023-02-17T14:24:55.768Z,28.98
2023-02-17T14:27:22.165Z,28.90
2023-02-17T14:29:48.528Z,29.07
2023-02-17T14:32:14.979Z,29.14
2023-02-17T14:34:41.255Z,29.28
2023-02-17T14:37:07.698Z,29.25
2023-02-17T14:39:34.047Z,29.18
2023-02-17T14:42:00.476Z,29.18
2023-02-17T14:44:26.820Z,29.01
2023-02-17T14:46:53.248Z,28.89
2023-02-17T14:49:20.540Z,28.85
2023-02-17T14:51:45.987Z,28.79
2023-02-17T14:54:12.327Z,28.83
2023-02-17T14:56:38.730Z,28.93
2023-02-17T14:59:05.068Z,28.98
2023-02-17T15:01:31.516Z,29.02
2023-02-17T15:03:57.842Z,29.03
2023-02-17T15:06:26.060Z,28.84
2023-02-17T15:08:50.576Z,28.68
2023-02-17T15:11:16.974Z,28.75
2023-02-17T15:13:43.335Z,28.65
2023-02-17T15:16:10.106Z,28.51
2023-02-17T15:18:36.073Z,28.48
2023-02-17T15:21:02.470Z,28.58
2023-02-17T15:23:28.829Z,28.66
2023-02-17T15:25:55.206Z,28.76
2023-02-17T15:28:21.541Z,28.73
2023-02-17T15:30:47.931Z,28.69
2023-02-17T15:33:14.280Z,28.62
2023-02-17T15:35:40.668Z,28.55
2023-02-17T15:38:07.011Z,28.64
2023-02-17T15:40:33.395Z,28.70
2023-02-17T15:42:59.732Z,28.66
2023-02-17T15:45:26.125Z,28.56
2023-02-17T15:47:53.830Z,28.70
2023-02-17T15:50:20.168Z,28.69
2023-02-17T15:52:45.202Z,28.69
2023-02-17T15:55:11.573Z,28.71
2023-02-17T15:57:37.915Z,28.65
2023-02-17T16:00:04.319Z,28.56
2023-02-17T16:02:30.639Z,28.56
2023-02-17T16:04:57.045Z,28.48
2023-02-17T16:07:23.366Z,28.46
2023-02-17T16:09:49.801Z,28.56
2023-02-17T16:12:16.127Z,28.56
2023-02-17T16:14:42.509Z,28.69
2023-02-17T16:17:08.842Z,28.68
2023-02-17T16:19:35.231Z,28.68
2023-02-17T16:22:01.589Z,28.76
2023-02-17T16:24:27.965Z,28.67
2023-02-17T16:26:54.341Z,28.62
2023-02-17T16:29:20.726Z,28.58
2023-02-17T16:31:47.170Z,28.57
2023-02-17T16:34:13.490Z,28.46
2023-02-17T16:36:39.844Z,28.44
2023-02-17T16:39:06.258Z,28.40
2023-02-17T16:41:32.601Z,28.15
2023-02-17T16:43:59.005Z,28.16
2023-02-17T16:46:25.347Z,28.40
2023-02-17T16:48:51.730Z,28.46
2023-02-17T16:51:18.080Z,28.54
2023-02-17T16:53:44.453Z,28.56
2023-02-17T16:56:10.795Z,28.29
2023-02-17T16:58:37.177Z,28.33
2023-02-17T17:01:03.518Z,28.40
2023-02-17T17:03:29.990Z,28.47
2023-02-17T17:05:56.254Z,28.56
2023-02-17T17:08:22.669Z,28.58
2023-02-17T17:10:49.009Z,28.24
2023-02-17T17:13:15.395Z,28.10
2023-02-17T17:15:41.739Z,27.99
2023-02-17T17:18:08.120Z,27.79
2023-02-17T17:20:34.457Z,27.89
2023-02-17T17:23:00.840Z,28.02
2023-02-17T17:25:27.179Z,28.14
2023-02-17T17:27:53.571Z,28.31
2023-02-17T17:30:19.933Z,28.44
2023-02-17T17:32:46.275Z,28.10
2023-02-17T17:35:12.621Z,27.96
2023-02-17T17:37:39.658Z,28.02
2023-02-17T17:40:05.328Z,28.04
2023-02-17T17:42:31.714Z,28.17
2023-02-17T17:44:58.049Z,28.31
2023-02-17T17:47:29.838Z,28.44
2023-02-17T17:49:50.777Z,28.50
2023-02-17T17:52:17.167Z,28.61
2023-02-17T17:54:43.502Z,28.44
2023-02-17T17:57:09.911Z,28.24
2023-02-17T17:59:36.229Z,28.02
2023-02-17T18:02:02.645Z,27.82
2023-02-17T18:04:29.079Z,27.79
2023-02-17T18:06:57.077Z,27.91
2023-02-17T18:09:31.320Z,28.12
2023-02-17T18:11:48.148Z,28.31
2023-02-17T18:14:14.511Z,28.47
2023-02-17T18:16:40.900Z,28.63
2023-02-17T18:19:07.234Z,28.79
2023-02-17T18:21:33.644Z,28.54
2023-02-17T18:23:59.978Z,28.48
2023-02-17T18:26:26.351Z,28.14
2023-02-17T18:28:52.701Z,28.08
2023-02-17T18:31:19.254Z,28.11
2023-02-17T18:33:45.469Z,28.15
2023-02-17T18:36:11.855Z,28.35
2023-02-17T18:38:38.201Z,28.50
2023-02-17T18:41:04.580Z,28.31
2023-02-17T18:43:30.929Z,28.40
2023-02-17T18:45:57.315Z,28.50
2023-02-17T18:48:23.657Z,28.44
2023-02-17T18:50:50.028Z,28.38
2023-02-17T18:53:16.361Z,28.48
2023-02-17T18:55:42.769Z,28.54
2023-02-17T18:58:10.995Z,28.29
2023-02-17T19:00:35.491Z,28.08
2023-02-17T19:03:01.879Z,28.10
2023-02-17T19:05:28.237Z,28.19
2023-02-17T19:07:54.583Z,28.30
2023-02-17T19:10:20.971Z,28.44
2023-02-17T19:12:47.314Z,28.56
2023-02-17T19:15:13.706Z,28.58
2023-02-17T19:17:40.053Z,28.63
2023-02-17T19:20:06.440Z,28.64
2023-02-17T19:22:32.798Z,28.74
2023-02-17T19:24:59.179Z,28.79
2023-02-17T19:27:25.522Z,28.85
2023-02-17T19:29:51.904Z,28.95
2023-02-17T19:32:18.292Z,29.06
2023-02-17T19:34:44.649Z,29.06
2023-02-17T19:37:10.981Z,29.12
2023-02-17T19:39:37.384Z,29.15
2023-02-17T19:42:03.730Z,29.21
2023-02-17T19:44:30.097Z,29.31
2023-02-17T19:46:56.449Z,29.30
2023-02-17T19:49:22.841Z,29.38
2023-02-17T19:51:49.224Z,29.42
2023-02-17T19:54:15.599Z,29.47
2023-02-17T19:56:41.984Z,29.51
2023-02-17T19:59:08.321Z,29.57
2023-02-17T20:01:34.700Z,29.59
2023-02-17T20:04:01.057Z,29.69
2023-02-17T20:06:27.443Z,29.69
2023-02-17T20:08:53.795Z,29.76
2023-02-17T20:11:20.177Z,29.79
2023-02-17T20:13:46.894Z,29.82
2023-02-17T20:16:12.986Z,29.90
2023-02-17T20:18:39.266Z,29.92
2023-02-17T20:21:05.649Z,29.93
2023-02-17T20:23:32.039Z,29.98
2023-02-17T20:25:58.577Z,30.04
2023-02-17T20:28:25.117Z,30.06
2023-02-17T20:30:51.133Z,30.08
2023-02-17T20:33:17.469Z,30.13
2023-02-17T20:35:43.874Z,30.16
2023-02-17T20:38:10.219Z,30.21
2023-02-17T20:40:36.604Z,30.24
2023-02-17T20:43:02.954Z,30.29
2023-02-17T20:45:29.349Z,30.31
2023-02-17T20:47:55.697Z,30.35
2023-02-17T20:50:22.110Z,30.40
2023-02-17T20:52:48.698Z,30.43
2023-02-17T20:55:14.899Z,30.44
2023-02-17T20:57:41.240Z,30.54
2023-02-17T21:00:07.629Z,30.59
2023-02-17T21:02:34.013Z,30.57
2023-02-17T21:05:00.368Z,30.66
2023-02-17T21:07:26.699Z,30.69
2023-02-17T21:09:53.083Z,30.70
2023-02-17T21:12:19.420Z,30.72
2023-02-17T21:14:46.221Z,30.77
2023-02-17T21:17:12.149Z,30.80
2023-02-17T21:19:38.551Z,30.82
2023-02-17T21:22:04.902Z,30.91
2023-02-17T21:24:31.282Z,30.91
2023-02-17T21:26:57.694Z,30.95
2023-02-17T21:29:24.079Z,30.98
2023-02-17T21:31:50.505Z,30.99
2023-02-17T21:34:16.842Z,31.03
2023-02-17T21:36:43.175Z,31.08
2023-02-17T21:39:09.563Z,31.11
2023-02-17T21:41:35.946Z,31.13
2023-02-17T21:44:02.324Z,31.17
2023-02-17T21:46:28.661Z,31.20
2023-02-17T21:48:55.049Z,31.22
2023-02-17T21:51:21.393Z,31.26
2023-02-17T21:53:47.773Z,31.28
2023-02-17T21:56:14.120Z,31.31
2023-02-17T21:58:40.499Z,31.37
2023-02-17T22:01:06.896Z,31.37
2023-02-17T22:03:33.228Z,31.41
2023-02-17T22:05:59.565Z,31.42
2023-02-17T22:08:25.956Z,31.46
2023-02-17T22:10:52.286Z,31.54
2023-02-17T22:13:18.673Z,31.49
2023-02-17T22:15:45.015Z,31.54
2023-02-17T22:18:11.410Z,31.56
2023-02-17T22:20:37.761Z,31.58
2023-02-17T22:23:04.141Z,31.64
2023-02-17T22:25:30.503Z,31.63
2023-02-17T22:27:56.924Z,31.66
2023-02-17T22:30:24.325Z,31.69
2023-02-17T22:32:49.703Z,31.71
2023-02-17T22:35:16.049Z,31.72
2023-02-17T22:37:42.434Z,31.76
2023-02-17T22:40:08.769Z,31.76
2023-02-17T22:42:35.201Z,31.81
2023-02-17T22:45:01.534Z,31.81
2023-02-17T22:47:27.928Z,31.85
2023-02-17T22:49:54.269Z,31.85
2023-02-17T22:52:20.660Z,31.85
2023-02-17T22:54:47.007Z,31.88
2023-02-17T22:57:14.827Z,31.91
2023-02-17T22:59:39.734Z,31.96
2023-02-17T23:02:06.144Z,31.98
2023-02-17T23:04:32.515Z,31.98
2023-02-17T23:06:58.854Z,31.99
2023-02-17T23:09:25.202Z,32.04
2023-02-17T23:11:51.584Z,32.04
2023-02-17T23:14:17.969Z,32.05
2023-02-17T23:16:44.358Z,32.08
2023-02-17T23:19:10.691Z,32.11
2023-02-17T23:21:37.056Z,32.14
2023-02-17T23:24:03.410Z,32.13
2023-02-17T23:26:29.796Z,32.14
2023-02-17T23:28:56.165Z,32.19
2023-02-17T23:31:22.654Z,32.21
2023-02-17T23:33:48.895Z,32.23
2023-02-17T23:36:15.293Z,32.27
2023-02-17T23:38:41.664Z,32.29
2023-02-17T23:41:08.047Z,32.25
2023-02-17T23:43:34.397Z,32.31
2023-02-17T23:46:00.852Z,32.33
2023-02-17T23:48:27.128Z,32.34
2023-02-17T23:50:53.503Z,32.39
2023-02-17T23:53:19.849Z,32.39
2023-02-17T23:55:46.235Z,32.45
2023-02-17T23:58:12.569Z,32.47
